sensor_id;sensor_type;location;lat;lon;timestamp;pressure;altitude;pressure_sealevel;temperature;humidity
10135;BME280;5107;48.850;8.924;2023-01-04T00:00:24;98005.94;;;3.10;97.94
10135;BME280;5107;48.850;8.924;2023-01-04T00:02:51;98010.22;;;3.11;98.39
10135;BME280;5107;48.850;8.924;2023-01-04T00:05:18;98000.94;;;3.07;98.27
10135;BME280;5107;48.850;8.924;2023-01-04T00:07:45;97993.16;;;3.07;98.29
10135;BME280;5107;48.850;8.924;2023-01-04T00:10:12;97994.25;;;3.03;97.60
10135;BME280;5107;48.850;8.924;2023-01-04T00:12:41;97985.81;;;2.99;97.76
10135;BME280;5107;48.850;8.924;2023-01-04T00:15:09;97989.41;;;2.97;97.95
10135;BME280;5107;48.850;8.924;2023-01-04T00:17:36;97992.19;;;2.94;98.04
10135;BME280;5107;48.850;8.924;2023-01-04T00:20:04;97983.66;;;2.92;98.14
10135;BME280;5107;48.850;8.924;2023-01-04T00:22:32;97977.72;;;2.90;98.49
10135;BME280;5107;48.850;8.924;2023-01-04T00:25:00;97972.78;;;2.85;98.41
10135;BME280;5107;48.850;8.924;2023-01-04T00:27:27;97966.72;;;2.85;99.15
10135;BME280;5107;48.850;8.924;2023-01-04T00:29:55;97964.88;;;2.87;98.86
10135;BME280;5107;48.850;8.924;2023-01-04T00:32:22;97971.75;;;2.88;98.33
10135;BME280;5107;48.850;8.924;2023-01-04T00:34:49;97967.50;;;2.87;98.64
10135;BME280;5107;48.850;8.924;2023-01-04T00:37:16;97959.53;;;2.90;98.91
10135;BME280;5107;48.850;8.924;2023-01-04T00:39:43;97946.63;;;2.88;98.74
10135;BME280;5107;48.850;8.924;2023-01-04T00:42:10;97955.16;;;2.90;98.74
10135;BME280;5107;48.850;8.924;2023-01-04T00:44:37;97946.63;;;2.88;98.32
10135;BME280;5107;48.850;8.924;2023-01-04T00:47:06;97945.78;;;2.88;97.88
10135;BME280;5107;48.850;8.924;2023-01-04T00:49:33;97937.34;;;2.84;98.70
10135;BME280;5107;48.850;8.924;2023-01-04T00:52:03;97930.34;;;2.85;98.30
10135;BME280;5107;48.850;8.924;2023-01-04T00:54:31;97923.50;;;2.84;98.38
10135;BME280;5107;48.850;8.924;2023-01-04T00:56:58;97933.91;;;2.84;98.16
10135;BME280;5107;48.850;8.924;2023-01-04T00:59:26;97926.09;;;2.84;98.22
10135;BME280;5107;48.850;8.924;2023-01-04T01:01:53;97932.03;;;2.86;98.53
10135;BME280;5107;48.850;8.924;2023-01-04T01:04:25;97935.47;;;2.86;98.19
10135;BME280;5107;48.850;8.924;2023-01-04T01:06:55;97937.13;;;2.87;98.20
10135;BME280;5107;48.850;8.924;2023-01-04T01:09:23;97936.31;;;2.87;98.17
10135;BME280;5107;48.850;8.924;2023-01-04T01:11:51;97940.75;;;2.85;98.14
10135;BME280;5107;48.850;8.924;2023-01-04T01:14:20;97943.34;;;2.85;97.64
10135;BME280;5107;48.850;8.924;2023-01-04T01:16:48;97946.91;;;2.84;97.86
10135;BME280;5107;48.850;8.924;2023-01-04T01:19:19;97941.97;;;2.79;98.30
10135;BME280;5107;48.850;8.924;2023-01-04T01:21:47;97946.53;;;2.76;98.04
10135;BME280;5107;48.850;8.924;2023-01-04T01:24:16;97939.72;;;2.73;98.05
10135;BME280;5107;48.850;8.924;2023-01-04T01:26:44;97940.81;;;2.69;98.60
10135;BME280;5107;48.850;8.924;2023-01-04T01:29:11;97942.50;;;2.70;98.30
10135;BME280;5107;48.850;8.924;2023-01-04T01:31:39;97952.81;;;2.72;98.20
10135;BME280;5107;48.850;8.924;2023-01-04T01:34:07;97951.13;;;2.71;98.38
10135;BME280;5107;48.850;8.924;2023-01-04T01:36:36;97955.41;;;2.72;98.25
10135;BME280;5107;48.850;8.924;2023-01-04T01:39:05;97952.81;;;2.72;98.03
10135;BME280;5107;48.850;8.924;2023-01-04T01:41:33;97945.09;;;2.70;97.96
10135;BME280;5107;48.850;8.924;2023-01-04T01:44:03;97945.78;;;2.74;98.23
10135;BME280;5107;48.850;8.924;2023-01-04T01:46:36;97944.94;;;2.73;97.75
10135;BME280;5107;48.850;8.924;2023-01-04T01:49:11;97941.31;;;2.76;98.16
10135;BME280;5107;48.850;8.924;2023-01-04T01:51:41;97947.00;;;2.82;98.17
10135;BME280;5107;48.850;8.924;2023-01-04T01:54:15;97944.31;;;2.84;98.49
10135;BME280;5107;48.850;8.924;2023-01-04T01:56:47;97954.41;;;2.88;98.34
10135;BME280;5107;48.850;8.924;2023-01-04T01:59:16;97953.56;;;2.88;98.46
10135;BME280;5107;48.850;8.924;2023-01-04T02:01:44;97944.09;;;2.87;98.39
10135;BME280;5107;48.850;8.924;2023-01-04T02:04:11;97948.66;;;2.83;98.59
10135;BME280;5107;48.850;8.924;2023-01-04T02:06:47;97952.19;;;2.82;98.22
10135;BME280;5107;48.850;8.924;2023-01-04T02:09:17;97942.72;;;2.81;98.72
10135;BME280;5107;48.850;8.924;2023-01-04T02:11:45;97942.78;;;2.80;98.37
10135;BME280;5107;48.850;8.924;2023-01-04T02:14:12;97940.38;;;2.77;98.64
10135;BME280;5107;48.850;8.924;2023-01-04T02:17:03;97939.66;;;2.75;98.59
10135;BME280;5107;48.850;8.924;2023-01-04T02:19:58;97932.03;;;2.72;98.66
10135;BME280;5107;48.850;8.924;2023-01-04T02:26:44;97923.47;;;2.55;98.74
10135;BME280;5107;48.850;8.924;2023-01-04T02:30:06;97929.94;;;2.48;98.63
10135;BME280;5107;48.850;8.924;2023-01-04T02:32:52;97922.25;;;2.47;99.14
10135;BME280;5107;48.850;8.924;2023-01-04T02:35:29;97917.34;;;2.42;98.88
10135;BME280;5107;48.850;8.924;2023-01-04T02:38:07;97917.66;;;2.36;98.59
10135;BME280;5107;48.850;8.924;2023-01-04T02:40:46;97912.66;;;2.33;98.78
10135;BME280;5107;48.850;8.924;2023-01-04T02:43:19;97904.22;;;2.29;98.64
10135;BME280;5107;48.850;8.924;2023-01-04T02:46:13;97904.28;;;2.28;98.64
10135;BME280;5107;48.850;8.924;2023-01-04T02:48:44;97899.94;;;2.28;98.71
10135;BME280;5107;48.850;8.924;2023-01-04T02:51:31;97899.78;;;2.32;98.51
10135;BME280;5107;48.850;8.924;2023-01-04T02:54:02;97898.75;;;2.34;98.29
10135;BME280;5107;48.850;8.924;2023-01-04T02:56:53;97883.19;;;2.34;98.47
10135;BME280;5107;48.850;8.924;2023-01-04T02:59:45;97886.34;;;2.39;98.11
10135;BME280;5107;48.850;8.924;2023-01-04T03:02:33;97873.28;;;2.41;97.81
10135;BME280;5107;48.850;8.924;2023-01-04T03:05:31;97867.78;;;2.45;98.14
10135;BME280;5107;48.850;8.924;2023-01-04T03:08:26;97867.72;;;2.47;97.80
10135;BME280;5107;48.850;8.924;2023-01-04T03:11:04;97864.72;;;2.53;97.53
10135;BME280;5107;48.850;8.924;2023-01-04T03:13:53;97862.06;;;2.54;97.36
10135;BME280;5107;48.850;8.924;2023-01-04T03:16:22;97863.63;;;2.57;96.79
10135;BME280;5107;48.850;8.924;2023-01-04T03:18:55;97868.53;;;2.61;96.75
10135;BME280;5107;48.850;8.924;2023-01-04T03:21:31;97869.00;;;2.68;96.79
10135;BME280;5107;48.850;8.924;2023-01-04T03:23:59;97869.28;;;2.78;96.63
10135;BME280;5107;48.850;8.924;2023-01-04T03:26:48;97867.34;;;2.81;96.09
10135;BME280;5107;48.850;8.924;2023-01-04T03:29:51;97868.94;;;2.84;95.32
10135;BME280;5107;48.850;8.924;2023-01-04T03:32:45;97868.00;;;2.85;95.88
10135;BME280;5107;48.850;8.924;2023-01-04T03:35:38;97867.72;;;2.89;95.71
10135;BME280;5107;48.850;8.924;2023-01-04T03:38:14;97861.03;;;2.99;95.04
10135;BME280;5107;48.850;8.924;2023-01-04T03:41:06;97851.44;;;3.14;94.81
10135;BME280;5107;48.850;8.924;2023-01-04T03:44:01;97850.22;;;3.20;94.51
10135;BME280;5107;48.850;8.924;2023-01-04T03:46:54;97850.13;;;3.21;94.50
10135;BME280;5107;48.850;8.924;2023-01-04T03:49:47;97843.00;;;3.25;94.63
10135;BME280;5107;48.850;8.924;2023-01-04T03:52:16;97845.84;;;3.34;94.16
10135;BME280;5107;48.850;8.924;2023-01-04T03:54:46;97849.81;;;3.40;93.58
10135;BME280;5107;48.850;8.924;2023-01-04T03:57:15;97853.16;;;3.42;93.77
10135;BME280;5107;48.850;8.924;2023-01-04T03:59:46;97841.34;;;3.51;92.67
10135;BME280;5107;48.850;8.924;2023-01-04T04:02:20;97842.19;;;3.51;92.59
10135;BME280;5107;48.850;8.924;2023-01-04T04:04:48;97838.63;;;3.52;92.78
10135;BME280;5107;48.850;8.924;2023-01-04T04:07:33;97837.50;;;3.56;92.34
10135;BME280;5107;48.850;8.924;2023-01-04T04:10:19;97839.91;;;3.59;92.90
10135;BME280;5107;48.850;8.924;2023-01-04T04:12:46;97842.31;;;3.62;91.96
10135;BME280;5107;48.850;8.924;2023-01-04T04:15:13;97839.59;;;3.64;92.16
10135;BME280;5107;48.850;8.924;2023-01-04T04:17:41;97836.81;;;3.67;91.70
10135;BME280;5107;48.850;8.924;2023-01-04T04:20:10;97835.88;;;3.68;91.92
10135;BME280;5107;48.850;8.924;2023-01-04T04:22:37;97832.31;;;3.69;91.96
10135;BME280;5107;48.850;8.924;2023-01-04T04:25:05;97831.63;;;3.67;91.65
10135;BME280;5107;48.850;8.924;2023-01-04T04:27:34;97839.28;;;3.68;91.29
10135;BME280;5107;48.850;8.924;2023-01-04T04:30:01;97824.44;;;3.70;91.49
10135;BME280;5107;48.850;8.924;2023-01-04T04:32:28;97815.59;;;3.73;91.40
10135;BME280;5107;48.850;8.924;2023-01-04T04:34:55;97813.09;;;3.71;90.79
10135;BME280;5107;48.850;8.924;2023-01-04T04:37:22;97814.56;;;3.75;90.73
10135;BME280;5107;48.850;8.924;2023-01-04T04:39:49;97816.13;;;3.78;90.69
10135;BME280;5107;48.850;8.924;2023-01-04T04:42:16;97799.56;;;3.79;90.89
10135;BME280;5107;48.850;8.924;2023-01-04T04:44:44;97802.09;;;3.80;90.28
10135;BME280;5107;48.850;8.924;2023-01-04T04:47:11;97811.75;;;3.78;90.92
10135;BME280;5107;48.850;8.924;2023-01-04T04:49:38;97804.25;;;3.74;90.50
10135;BME280;5107;48.850;8.924;2023-01-04T04:52:05;97799.88;;;3.74;90.43
10135;BME280;5107;48.850;8.924;2023-01-04T04:54:33;97786.03;;;3.74;90.87
10135;BME280;5107;48.850;8.924;2023-01-04T04:57:00;97793.00;;;3.73;90.83
10135;BME280;5107;48.850;8.924;2023-01-04T04:59:27;97788.84;;;3.71;91.49
10135;BME280;5107;48.850;8.924;2023-01-04T05:01:55;97788.22;;;3.67;91.30
10135;BME280;5107;48.850;8.924;2023-01-04T05:04:22;97789.16;;;3.66;91.26
10135;BME280;5107;48.850;8.924;2023-01-04T05:06:50;97790.59;;;3.70;90.91
10135;BME280;5107;48.850;8.924;2023-01-04T05:09:17;97795.53;;;3.75;91.39
10135;BME280;5107;48.850;8.924;2023-01-04T05:11:45;97791.56;;;3.82;91.07
10135;BME280;5107;48.850;8.924;2023-01-04T05:14:29;97786.69;;;3.90;90.82
10135;BME280;5107;48.850;8.924;2023-01-04T05:16:58;97788.69;;;3.99;89.96
10135;BME280;5107;48.850;8.924;2023-01-04T05:19:25;97784.94;;;4.03;89.92
10135;BME280;5107;48.850;8.924;2023-01-04T05:21:52;97784.31;;;4.12;89.53
10135;BME280;5107;48.850;8.924;2023-01-04T05:24:19;97784.84;;;4.17;89.30
10135;BME280;5107;48.850;8.924;2023-01-04T05:26:46;97785.28;;;4.24;88.58
10135;BME280;5107;48.850;8.924;2023-01-04T05:29:13;97779.84;;;4.27;88.77
10135;BME280;5107;48.850;8.924;2023-01-04T05:32:01;97783.72;;;4.34;87.76
10135;BME280;5107;48.850;8.924;2023-01-04T05:34:27;97778.59;;;4.33;88.05
10135;BME280;5107;48.850;8.924;2023-01-04T05:36:56;97774.22;;;4.33;88.67
10135;BME280;5107;48.850;8.924;2023-01-04T05:39:24;97775.91;;;4.34;88.23
10135;BME280;5107;48.850;8.924;2023-01-04T05:41:51;97775.78;;;4.36;88.30
10135;BME280;5107;48.850;8.924;2023-01-04T05:44:50;97783.19;;;4.42;88.33
10135;BME280;5107;48.850;8.924;2023-01-04T05:47:18;97782.25;;;4.43;88.34
10135;BME280;5107;48.850;8.924;2023-01-04T05:49:46;97770.66;;;4.47;88.25
10135;BME280;5107;48.850;8.924;2023-01-04T05:52:14;97765.66;;;4.56;87.42
10135;BME280;5107;48.850;8.924;2023-01-04T05:54:41;97771.28;;;4.63;87.41
10135;BME280;5107;48.850;8.924;2023-01-04T05:57:08;97772.75;;;4.67;86.75
10135;BME280;5107;48.850;8.924;2023-01-04T05:59:36;97765.63;;;4.69;86.75
10135;BME280;5107;48.850;8.924;2023-01-04T06:02:04;97770.63;;;4.72;86.82
10135;BME280;5107;48.850;8.924;2023-01-04T06:04:33;97764.38;;;4.75;86.56
10135;BME280;5107;48.850;8.924;2023-01-04T06:07:00;97768.53;;;4.77;86.44
10135;BME280;5107;48.850;8.924;2023-01-04T06:09:27;97770.50;;;4.86;86.49
10135;BME280;5107;48.850;8.924;2023-01-04T06:11:54;97774.34;;;4.93;86.57
10135;BME280;5107;48.850;8.924;2023-01-04T06:14:22;97763.25;;;5.03;85.79
10135;BME280;5107;48.850;8.924;2023-01-04T06:17:11;97760.72;;;5.14;84.88
10135;BME280;5107;48.850;8.924;2023-01-04T06:19:39;97756.97;;;5.18;84.53
10135;BME280;5107;48.850;8.924;2023-01-04T06:22:07;97764.66;;;5.19;85.24
10135;BME280;5107;48.850;8.924;2023-01-04T06:24:34;97758.19;;;5.25;83.80
10135;BME280;5107;48.850;8.924;2023-01-04T06:27:03;97752.50;;;5.31;83.98
10135;BME280;5107;48.850;8.924;2023-01-04T06:29:30;97764.41;;;5.35;83.67
10135;BME280;5107;48.850;8.924;2023-01-04T06:31:57;97761.56;;;5.38;83.53
10135;BME280;5107;48.850;8.924;2023-01-04T06:34:24;97758.16;;;5.49;82.89
10135;BME280;5107;48.850;8.924;2023-01-04T06:36:52;97745.97;;;5.49;83.18
10135;BME280;5107;48.850;8.924;2023-01-04T06:39:19;97748.94;;;5.56;82.30
10135;BME280;5107;48.850;8.924;2023-01-04T06:41:46;97757.41;;;5.59;82.16
10135;BME280;5107;48.850;8.924;2023-01-04T06:44:13;97753.69;;;5.62;82.36
10135;BME280;5107;48.850;8.924;2023-01-04T06:46:40;97756.22;;;5.63;82.10
10135;BME280;5107;48.850;8.924;2023-01-04T06:49:07;97748.38;;;5.63;82.45
10135;BME280;5107;48.850;8.924;2023-01-04T06:51:34;97748.16;;;5.66;82.54
10135;BME280;5107;48.850;8.924;2023-01-04T06:54:03;97741.47;;;5.62;82.82
10135;BME280;5107;48.850;8.924;2023-01-04T06:56:30;97748.38;;;5.63;82.78
10135;BME280;5107;48.850;8.924;2023-01-04T06:58:58;97744.00;;;5.64;82.70
10135;BME280;5107;48.850;8.924;2023-01-04T07:01:25;97747.47;;;5.76;82.54
10135;BME280;5107;48.850;8.924;2023-01-04T07:03:52;97735.94;;;5.78;82.78
10135;BME280;5107;48.850;8.924;2023-01-04T07:06:19;97740.34;;;5.78;82.96
10135;BME280;5107;48.850;8.924;2023-01-04T07:08:46;97744.63;;;5.79;82.19
10135;BME280;5107;48.850;8.924;2023-01-04T07:11:15;97747.13;;;5.80;82.71
10135;BME280;5107;48.850;8.924;2023-01-04T07:13:42;97749.97;;;5.77;83.55
10135;BME280;5107;48.850;8.924;2023-01-04T07:16:09;97749.16;;;5.77;83.83
10135;BME280;5107;48.850;8.924;2023-01-04T07:18:36;97758.63;;;5.78;84.86
10135;BME280;5107;48.850;8.924;2023-01-04T07:21:03;97762.22;;;5.77;85.07
10135;BME280;5107;48.850;8.924;2023-01-04T07:23:31;97749.59;;;5.70;86.18
10135;BME280;5107;48.850;8.924;2023-01-04T07:26:01;97750.16;;;5.63;87.14
10135;BME280;5107;48.850;8.924;2023-01-04T07:28:29;97738.41;;;5.57;87.84
10135;BME280;5107;48.850;8.924;2023-01-04T07:31:19;97733.38;;;5.54;88.66
10135;BME280;5107;48.850;8.924;2023-01-04T07:33:49;97726.91;;;5.60;87.56
10135;BME280;5107;48.850;8.924;2023-01-04T07:36:16;97722.38;;;5.62;87.50
10135;BME280;5107;48.850;8.924;2023-01-04T07:38:43;97724.78;;;5.65;87.61
10135;BME280;5107;48.850;8.924;2023-01-04T07:41:10;97721.94;;;5.68;87.26
10135;BME280;5107;48.850;8.924;2023-01-04T07:43:38;97719.91;;;5.71;86.73
10135;BME280;5107;48.850;8.924;2023-01-04T07:46:06;97717.31;;;5.71;87.35
10135;BME280;5107;48.850;8.924;2023-01-04T07:48:33;97712.19;;;5.70;87.23
10135;BME280;5107;48.850;8.924;2023-01-04T07:51:00;97710.31;;;5.72;86.17
10135;BME280;5107;48.850;8.924;2023-01-04T07:53:27;97710.31;;;5.72;86.43
10135;BME280;5107;48.850;8.924;2023-01-04T07:55:55;97705.09;;;5.72;87.48
10135;BME280;5107;48.850;8.924;2023-01-04T07:58:22;97702.16;;;5.77;85.96
10135;BME280;5107;48.850;8.924;2023-01-04T08:00:51;97700.59;;;5.74;86.52
10135;BME280;5107;48.850;8.924;2023-01-04T08:03:18;97702.00;;;5.78;86.37
10135;BME280;5107;48.850;8.924;2023-01-04T08:05:45;97699.41;;;5.78;86.25
10135;BME280;5107;48.850;8.924;2023-01-04T08:08:12;97693.84;;;5.83;86.14
10135;BME280;5107;48.850;8.924;2023-01-04T08:10:39;97686.59;;;5.86;85.20
10135;BME280;5107;48.850;8.924;2023-01-04T08:13:06;97682.63;;;5.93;84.74
10135;BME280;5107;48.850;8.924;2023-01-04T08:15:33;97681.53;;;5.96;84.20
10135;BME280;5107;48.850;8.924;2023-01-04T08:18:02;97685.22;;;6.04;83.42
10135;BME280;5107;48.850;8.924;2023-01-04T08:20:29;97680.72;;;6.06;83.16
10135;BME280;5107;48.850;8.924;2023-01-04T08:22:56;97682.28;;;6.09;83.45
10135;BME280;5107;48.850;8.924;2023-01-04T08:25:23;97680.63;;;6.19;81.68
10135;BME280;5107;48.850;8.924;2023-01-04T08:27:50;97681.31;;;6.21;81.87
10135;BME280;5107;48.850;8.924;2023-01-04T08:30:17;97672.53;;;6.22;82.11
10135;BME280;5107;48.850;8.924;2023-01-04T08:32:44;97670.75;;;6.34;80.39
10135;BME280;5107;48.850;8.924;2023-01-04T08:35:13;97679.56;;;6.33;81.34
10135;BME280;5107;48.850;8.924;2023-01-04T08:37:40;97674.91;;;6.36;80.42
10135;BME280;5107;48.850;8.924;2023-01-04T08:40:09;97658.28;;;6.37;80.64
10135;BME280;5107;48.850;8.924;2023-01-04T08:42:36;97653.03;;;6.37;80.76
10135;BME280;5107;48.850;8.924;2023-01-04T08:45:04;97651.25;;;6.38;79.92
10135;BME280;5107;48.850;8.924;2023-01-04T08:47:32;97656.25;;;6.41;80.64
10135;BME280;5107;48.850;8.924;2023-01-04T08:49:59;97654.38;;;6.43;79.96
10135;BME280;5107;48.850;8.924;2023-01-04T08:52:27;97641.53;;;6.51;80.11
10135;BME280;5107;48.850;8.924;2023-01-04T08:54:54;97634.25;;;6.55;79.46
10135;BME280;5107;48.850;8.924;2023-01-04T08:57:21;97650.41;;;6.60;79.18
10135;BME280;5107;48.850;8.924;2023-01-04T08:59:49;97646.59;;;6.64;79.33
10135;BME280;5107;48.850;8.924;2023-01-04T09:02:21;97647.66;;;6.61;79.96
10135;BME280;5107;48.850;8.924;2023-01-04T09:04:49;97649.44;;;6.72;79.22
10135;BME280;5107;48.850;8.924;2023-01-04T09:07:16;97634.22;;;6.77;78.84
10135;BME280;5107;48.850;8.924;2023-01-04T09:09:45;97658.22;;;6.82;78.54
10135;BME280;5107;48.850;8.924;2023-01-04T09:12:12;97662.25;;;6.86;78.21
10135;BME280;5107;48.850;8.924;2023-01-04T09:14:39;97676.13;;;6.86;78.71
10135;BME280;5107;48.850;8.924;2023-01-04T09:17:06;97677.69;;;6.89;78.64
10135;BME280;5107;48.850;8.924;2023-01-04T09:19:33;97672.09;;;6.94;78.92
10135;BME280;5107;48.850;8.924;2023-01-04T09:22:00;97679.44;;;7.00;78.61
10135;BME280;5107;48.850;8.924;2023-01-04T09:24:28;97675.75;;;7.02;78.81
10135;BME280;5107;48.850;8.924;2023-01-04T09:26:56;97675.16;;;7.10;78.59
10135;BME280;5107;48.850;8.924;2023-01-04T09:29:24;97661.09;;;7.11;78.48
10135;BME280;5107;48.850;8.924;2023-01-04T09:31:53;97669.75;;;7.11;78.92
10135;BME280;5107;48.850;8.924;2023-01-04T09:34:20;97667.84;;;7.13;78.95
10135;BME280;5107;48.850;8.924;2023-01-04T09:36:47;97669.53;;;7.14;79.06
10135;BME280;5107;48.850;8.924;2023-01-04T09:39:16;97652.63;;;7.18;78.62
10135;BME280;5107;48.850;8.924;2023-01-04T09:41:48;97667.22;;;7.21;78.44
10135;BME280;5107;48.850;8.924;2023-01-04T09:44:31;97666.41;;;7.20;78.81
10135;BME280;5107;48.850;8.924;2023-01-04T09:47:03;97680.78;;;7.26;78.44
10135;BME280;5107;48.850;8.924;2023-01-04T09:49:37;97667.44;;;7.29;78.64
10135;BME280;5107;48.850;8.924;2023-01-04T09:52:18;97674.34;;;7.30;78.55
10135;BME280;5107;48.850;8.924;2023-01-04T09:54:50;97662.09;;;7.31;78.41
10135;BME280;5107;48.850;8.924;2023-01-04T09:57:24;97661.97;;;7.32;78.81
10135;BME280;5107;48.850;8.924;2023-01-04T09:59:58;97659.47;;;7.31;79.30
10135;BME280;5107;48.850;8.924;2023-01-04T10:02:41;97655.13;;;7.41;78.83
10135;BME280;5107;48.850;8.924;2023-01-04T10:05:14;97659.97;;;7.45;78.72
10135;BME280;5107;48.850;8.924;2023-01-04T10:07:43;97654.38;;;7.50;78.81
10135;BME280;5107;48.850;8.924;2023-01-04T10:10:14;97643.38;;;7.56;78.77
10135;BME280;5107;48.850;8.924;2023-01-04T10:12:49;97632.84;;;7.67;77.91
10135;BME280;5107;48.850;8.924;2023-01-04T10:15:31;97627.09;;;7.73;78.41
10135;BME280;5107;48.850;8.924;2023-01-04T10:18:15;97625.50;;;7.82;78.01
10135;BME280;5107;48.850;8.924;2023-01-04T10:21:00;97632.97;;;7.86;78.14
10135;BME280;5107;48.850;8.924;2023-01-04T10:23:54;97622.81;;;7.93;77.69
10135;BME280;5107;48.850;8.924;2023-01-04T10:26:30;97625.59;;;8.01;77.20
10135;BME280;5107;48.850;8.924;2023-01-04T10:29:27;97626.84;;;8.07;77.49
10135;BME280;5107;48.850;8.924;2023-01-04T10:32:04;97615.84;;;8.13;77.16
10135;BME280;5107;48.850;8.924;2023-01-04T10:34:41;97610.22;;;8.17;76.48
10135;BME280;5107;48.850;8.924;2023-01-04T10:37:13;97604.00;;;8.18;76.81
10135;BME280;5107;48.850;8.924;2023-01-04T10:39:43;97593.25;;;8.21;77.54
10135;BME280;5107;48.850;8.924;2023-01-04T10:42:18;97595.06;;;8.30;76.55
10135;BME280;5107;48.850;8.924;2023-01-04T10:45:09;97583.94;;;8.38;76.13
10135;BME280;5107;48.850;8.924;2023-01-04T10:47:51;97591.53;;;8.41;76.64
10135;BME280;5107;48.850;8.924;2023-01-04T10:50:28;97584.50;;;8.42;76.21
10135;BME280;5107;48.850;8.924;2023-01-04T10:53:01;97579.53;;;8.48;75.80
10135;BME280;5107;48.850;8.924;2023-01-04T10:55:36;97583.00;;;8.49;76.70
10135;BME280;5107;48.850;8.924;2023-01-04T10:58:14;97571.69;;;8.48;76.40
10135;BME280;5107;48.850;8.924;2023-01-04T11:00:47;97581.91;;;8.51;76.87
10135;BME280;5107;48.850;8.924;2023-01-04T11:03:20;97576.38;;;8.54;76.73
10135;BME280;5107;48.850;8.924;2023-01-04T11:05:57;97571.13;;;8.54;76.72
10135;BME280;5107;48.850;8.924;2023-01-04T11:08:31;97573.75;;;8.54;76.94
10135;BME280;5107;48.850;8.924;2023-01-04T11:11:04;97576.38;;;8.54;76.98
10135;BME280;5107;48.850;8.924;2023-01-04T11:13:34;97563.41;;;8.53;77.11
10135;BME280;5107;48.850;8.924;2023-01-04T11:16:04;97571.13;;;8.54;77.19
10135;BME280;5107;48.850;8.924;2023-01-04T11:18:35;97575.72;;;8.52;77.50
10135;BME280;5107;48.850;8.924;2023-01-04T11:21:11;97564.66;;;8.49;77.58
10135;BME280;5107;48.850;8.924;2023-01-04T11:23:40;97563.81;;;8.48;77.67
10135;BME280;5107;48.850;8.924;2023-01-04T11:26:11;97554.41;;;8.46;77.79
10135;BME280;5107;48.850;8.924;2023-01-04T11:28:44;97558.03;;;8.45;77.71
10135;BME280;5107;48.850;8.924;2023-01-04T11:31:20;97566.72;;;8.45;78.16
10135;BME280;5107;48.850;8.924;2023-01-04T11:33:54;97552.63;;;8.46;78.36
10135;BME280;5107;48.850;8.924;2023-01-04T11:36:35;97559.81;;;8.44;78.66
10135;BME280;5107;48.850;8.924;2023-01-04T11:39:05;97551.00;;;8.45;78.69
10135;BME280;5107;48.850;8.924;2023-01-04T11:41:32;97549.88;;;8.48;78.60
10135;BME280;5107;48.850;8.924;2023-01-04T11:44:02;97541.88;;;8.49;78.35
10135;BME280;5107;48.850;8.924;2023-01-04T11:46:31;97544.38;;;8.51;78.55
10135;BME280;5107;48.850;8.924;2023-01-04T11:49:01;97545.19;;;8.51;78.40
10135;BME280;5107;48.850;8.924;2023-01-04T11:51:37;97533.03;;;8.50;78.70
10135;BME280;5107;48.850;8.924;2023-01-04T11:54:18;97537.72;;;8.56;79.01
10135;BME280;5107;48.850;8.924;2023-01-04T11:57:00;97536.06;;;8.55;79.09
10135;BME280;5107;48.850;8.924;2023-01-04T11:59:28;97545.59;;;8.56;79.36
10135;BME280;5107;48.850;8.924;2023-01-04T12:02:20;97542.97;;;8.56;79.31
10135;BME280;5107;48.850;8.924;2023-01-04T12:04:50;97546.03;;;8.61;79.66
10135;BME280;5107;48.850;8.924;2023-01-04T12:07:28;97538.72;;;8.65;79.49
10135;BME280;5107;48.850;8.924;2023-01-04T12:09:57;97537.31;;;8.70;79.19
10135;BME280;5107;48.850;8.924;2023-01-04T12:12:29;97541.47;;;8.73;79.33
10135;BME280;5107;48.850;8.924;2023-01-04T12:15:04;97533.47;;;8.74;79.39
10135;BME280;5107;48.850;8.924;2023-01-04T12:17:42;97543.84;;;8.76;79.49
10135;BME280;5107;48.850;8.924;2023-01-04T12:20:17;97543.53;;;8.79;79.62
10135;BME280;5107;48.850;8.924;2023-01-04T12:22:45;97533.59;;;8.83;79.63
10135;BME280;5107;48.850;8.924;2023-01-04T12:25:28;97533.47;;;8.84;80.16
10135;BME280;5107;48.850;8.924;2023-01-04T12:27:57;97530.72;;;8.86;80.46
10135;BME280;5107;48.850;8.924;2023-01-04T12:30:39;97532.38;;;8.87;80.44
10135;BME280;5107;48.850;8.924;2023-01-04T12:33:37;97520.88;;;8.88;80.27
10135;BME280;5107;48.850;8.924;2023-01-04T12:36:07;97523.38;;;8.89;80.06
10135;BME280;5107;48.850;8.924;2023-01-04T12:39:03;97526.56;;;8.93;79.78
10135;BME280;5107;48.850;8.924;2023-01-04T12:42:16;97517.59;;;8.95;79.55
10135;BME280;5107;48.850;8.924;2023-01-04T12:45:17;97519.53;;;8.93;79.71
10135;BME280;5107;48.850;8.924;2023-01-04T12:47:51;97517.03;;;8.92;80.27
10135;BME280;5107;48.850;8.924;2023-01-04T12:51:23;97513.31;;;8.94;80.90
10135;BME280;5107;48.850;8.924;2023-01-04T12:53:57;97512.34;;;8.95;81.21
10135;BME280;5107;48.850;8.924;2023-01-04T12:57:10;97497.25;;;8.97;81.30
10135;BME280;5107;48.850;8.924;2023-01-04T12:59:39;97500.72;;;8.98;81.44
10135;BME280;5107;48.850;8.924;2023-01-04T13:02:21;97486.38;;;9.02;81.45
10135;BME280;5107;48.850;8.924;2023-01-04T13:04:51;97479.00;;;9.05;81.46
10135;BME280;5107;48.850;8.924;2023-01-04T13:07:24;97477.91;;;9.08;81.42
10135;BME280;5107;48.850;8.924;2023-01-04T13:09:55;97479.44;;;9.10;80.86
10135;BME280;5107;48.850;8.924;2023-01-04T13:12:55;97478.16;;;9.14;80.92
10135;BME280;5107;48.850;8.924;2023-01-04T13:15:40;97477.75;;;9.19;80.78
10135;BME280;5107;48.850;8.924;2023-01-04T13:18:34;97491.28;;;9.24;80.11
10135;BME280;5107;48.850;8.924;2023-01-04T13:21:09;97494.28;;;9.29;80.46
10135;BME280;5107;48.850;8.924;2023-01-04T13:23:38;97496.66;;;9.32;80.03
10135;BME280;5107;48.850;8.924;2023-01-04T13:26:32;97492.63;;;9.38;79.83
10135;BME280;5107;48.850;8.924;2023-01-04T13:29:12;97501.06;;;9.41;79.48
10135;BME280;5107;48.850;8.924;2023-01-04T13:31:52;97498.97;;;9.45;79.00
10135;BME280;5107;48.850;8.924;2023-01-04T13:34:24;97490.09;;;9.46;79.65
10135;BME280;5107;48.850;8.924;2023-01-04T13:37:04;97476.56;;;9.50;79.15
10135;BME280;5107;48.850;8.924;2023-01-04T13:39:34;97472.13;;;9.51;78.65
10135;BME280;5107;48.850;8.924;2023-01-04T13:42:03;97462.16;;;9.55;78.61
10135;BME280;5107;48.850;8.924;2023-01-04T13:47:46;97453.72;;;9.61;78.12
10135;BME280;5107;48.850;8.924;2023-01-04T13:50:30;97449.41;;;9.60;78.39
10135;BME280;5107;48.850;8.924;2023-01-04T13:52:58;97447.31;;;9.63;77.67
10135;BME280;5107;48.850;8.924;2023-01-04T13:55:29;97441.91;;;9.65;77.44
10135;BME280;5107;48.850;8.924;2023-01-04T13:57:58;97438.59;;;9.63;77.48
10135;BME280;5107;48.850;8.924;2023-01-04T14:00:29;97448.31;;;9.62;77.66